Temiscaming, Canada
Current Conditions -  °F | °C
As of 4:00 PM on Thursday 18 Dec 2014 (Local Time) from CYXR Reporting Station
Clear Clear  
Wind Chill:   Ceiling: Unl
Heat Index: 12°   Visibility: 9mi
Dew Point:   Wind: 9mph
Humidity: 79%   Direction: 310°NW
Pressure: 30.14"   Gusts: NA
Location:  46.72°N, 79.08°W
Report Text: CYXR 182100Z AUTO 31008KT 9SM CLR M11/M14 A3014 RMK SLP226
Loading
Personal Weather Stations






























Interactive Weather Map New forecast layout! Learn more

10-Day Weather Forecast

Advertisements
Track Severe Weather on mobile